createdAt,value
2022-09-03T00:00:21.524Z,69.20
2022-09-03T00:01:21.923Z,69.10
2022-09-03T00:02:22.261Z,69.10
2022-09-03T00:03:22.719Z,69.10
2022-09-03T00:04:25.777Z,69.10
2022-09-03T00:05:23.344Z,69.00
2022-09-03T00:06:23.689Z,69.00
2022-09-03T00:07:24.056Z,68.90
2022-09-03T00:08:24.556Z,69.00
2022-09-03T00:09:24.807Z,69.10
2022-09-03T00:10:25.125Z,69.24
2022-09-03T00:11:25.505Z,69.44
2022-09-03T00:12:25.843Z,69.54
2022-09-03T00:13:26.519Z,69.54
2022-09-03T00:14:26.617Z,69.54
2022-09-03T00:15:27.033Z,69.64
2022-09-03T00:16:27.378Z,69.44
2022-09-03T00:17:27.738Z,69.44
2022-09-03T00:18:28.075Z,69.54
2022-09-03T00:19:28.419Z,69.34
2022-09-03T00:20:28.776Z,69.44
2022-09-03T00:21:29.133Z,69.24
2022-09-03T00:22:29.506Z,69.34
2022-09-03T00:23:29.904Z,69.44
2022-09-03T00:24:30.205Z,69.44
2022-09-03T00:25:30.588Z,69.34
2022-09-03T00:26:30.965Z,69.44
2022-09-03T00:27:31.292Z,69.44
2022-09-03T00:28:31.674Z,69.34
2022-09-03T00:29:32.016Z,69.44
2022-09-03T00:30:32.392Z,69.74
2022-09-03T00:31:32.833Z,69.78
2022-09-03T00:32:33.109Z,69.88
2022-09-03T00:33:33.487Z,69.98
2022-09-03T00:34:33.857Z,70.08
2022-09-03T00:35:34.214Z,70.08
2022-09-03T00:36:34.620Z,69.98
2022-09-03T00:37:38.040Z,69.88
2022-09-03T00:38:35.307Z,69.78
2022-09-03T00:39:35.705Z,70.08
2022-09-03T00:40:36.031Z,70.08
2022-09-03T00:41:36.383Z,70.18
2022-09-03T00:42:36.776Z,70.28
2022-09-03T00:43:37.098Z,70.18
2022-09-03T00:44:37.477Z,70.28
2022-09-03T00:45:37.805Z,70.28
2022-09-03T00:46:38.211Z,70.28
2022-09-03T00:47:38.549Z,70.39
2022-09-03T00:48:38.956Z,70.52
2022-09-03T00:49:39.262Z,70.72
2022-09-03T00:50:39.616Z,70.72
2022-09-03T00:51:40.002Z,70.83
2022-09-03T00:52:40.358Z,70.72
2022-09-03T00:53:40.746Z,71.03
2022-09-03T00:54:41.873Z,70.92
2022-09-03T00:55:41.414Z,71.13
2022-09-03T00:56:41.767Z,70.92
2022-09-03T00:57:42.117Z,71.03
2022-09-03T00:58:42.488Z,70.92
2022-09-03T00:59:42.840Z,71.03
2022-09-03T01:00:43.212Z,71.03
2022-09-03T01:01:43.774Z,71.03
2022-09-03T01:02:44.119Z,71.03
2022-09-03T01:03:44.322Z,71.13
2022-09-03T01:04:44.685Z,71.23
2022-09-03T01:05:45.132Z,71.36
2022-09-03T01:06:45.444Z,71.47
2022-09-03T01:07:45.819Z,71.67
2022-09-03T01:08:49.205Z,71.77
2022-09-03T01:09:46.541Z,71.88
2022-09-03T01:10:46.899Z,71.77
2022-09-03T01:11:47.290Z,71.77
2022-09-03T01:12:47.657Z,72.17
2022-09-03T01:13:47.995Z,72.08
2022-09-03T01:14:48.338Z,72.08
2022-09-03T01:15:48.747Z,72.28
2022-09-03T01:16:49.084Z,72.28
2022-09-03T01:17:49.433Z,72.31
2022-09-03T01:18:49.802Z,72.31
2022-09-03T01:19:50.267Z,72.31
2022-09-03T01:20:50.667Z,72.52
2022-09-03T01:21:50.875Z,72.72
2022-09-03T01:22:51.248Z,72.72
2022-09-03T01:23:51.622Z,72.82
2022-09-03T01:24:51.974Z,72.82
2022-09-03T01:25:52.345Z,72.72
2022-09-03T01:26:52.713Z,72.82
2022-09-03T01:27:53.064Z,72.82
2022-09-03T01:28:53.428Z,73.02
2022-09-03T01:29:53.776Z,73.02
2022-09-03T01:30:54.163Z,73.02
2022-09-03T01:31:54.513Z,73.02
2022-09-03T01:32:54.842Z,73.16
2022-09-03T01:33:55.232Z,73.16
2022-09-03T01:34:55.555Z,73.46
2022-09-03T01:35:55.904Z,73.36
2022-09-03T01:36:56.246Z,73.46
2022-09-03T01:37:56.607Z,73.57
2022-09-03T01:38:57.033Z,73.77
2022-09-03T01:39:57.432Z,74.11
2022-09-03T01:40:57.684Z,74.21
2022-09-03T01:41:58.035Z,74.31
2022-09-03T01:42:58.410Z,74.21
2022-09-03T01:43:58.784Z,74.07
2022-09-03T01:44:59.139Z,74.07
2022-09-03T01:45:59.522Z,73.97
2022-09-03T01:46:59.876Z,74.07
2022-09-03T01:48:00.229Z,73.97
2022-09-03T01:49:00.595Z,74.11
2022-09-03T01:50:00.959Z,73.87
2022-09-03T01:51:01.346Z,73.87
2022-09-03T01:52:01.645Z,74.21
2022-09-03T01:53:02.021Z,74.31
2022-09-03T01:54:02.400Z,74.41
2022-09-03T01:55:02.733Z,74.41
2022-09-03T01:56:03.098Z,74.41
2022-09-03T01:57:03.444Z,74.52
2022-09-03T01:58:03.861Z,74.41
2022-09-03T01:59:04.253Z,74.62
2022-09-03T02:00:04.540Z,74.72
2022-09-03T02:01:04.922Z,74.82
2022-09-03T02:02:05.282Z,74.82
2022-09-03T02:03:05.635Z,74.82
2022-09-03T02:04:06.025Z,74.82
2022-09-03T02:05:06.367Z,74.82
2022-09-03T02:06:06.737Z,74.92
2022-09-03T02:07:07.076Z,75.02
2022-09-03T02:08:07.434Z,75.16
2022-09-03T02:09:07.851Z,75.37
2022-09-03T02:10:08.162Z,75.57
2022-09-03T02:11:08.511Z,75.67
2022-09-03T02:12:08.882Z,75.77
2022-09-03T02:13:09.240Z,75.87
2022-09-03T02:14:09.602Z,75.98
2022-09-03T02:15:09.952Z,75.98
2022-09-03T02:16:10.380Z,76.21
2022-09-03T02:17:10.669Z,76.52
2022-09-03T02:18:11.052Z,76.72
2022-09-03T02:19:11.445Z,76.82
2022-09-03T02:20:11.734Z,76.92
2022-09-03T02:21:12.082Z,77.13
2022-09-03T02:22:12.521Z,76.92
2022-09-03T02:23:12.814Z,76.72
2022-09-03T02:24:13.192Z,76.82
2022-09-03T02:25:13.546Z,76.82
2022-09-03T02:26:13.902Z,77.26
2022-09-03T02:27:14.261Z,77.17
2022-09-03T02:28:16.959Z,76.92
2022-09-03T02:29:15.042Z,77.26
2022-09-03T02:30:15.349Z,77.03
2022-09-03T02:31:15.821Z,77.03
2022-09-03T02:32:16.957Z,77.03
2022-09-03T02:33:16.466Z,77.06
2022-09-03T02:34:16.818Z,76.96
2022-09-03T02:35:17.177Z,77.06
2022-09-03T02:36:17.574Z,76.92
2022-09-03T02:37:17.942Z,77.03
2022-09-03T02:38:18.280Z,76.92
2022-09-03T02:39:19.151Z,77.03
2022-09-03T02:40:18.988Z,77.03
2022-09-03T02:41:19.381Z,77.06
2022-09-03T02:42:19.719Z,77.17
2022-09-03T02:43:20.095Z,77.37
2022-09-03T02:44:20.470Z,77.47
2022-09-03T02:45:20.837Z,77.57
2022-09-03T02:46:21.213Z,77.78
2022-09-03T02:47:21.551Z,77.67
2022-09-03T02:48:21.985Z,77.78
2022-09-03T02:49:22.335Z,77.67
2022-09-03T02:50:22.678Z,77.57
2022-09-03T02:51:23.038Z,77.57
2022-09-03T02:52:23.389Z,77.47
2022-09-03T02:53:23.775Z,77.47
2022-09-03T02:54:24.154Z,77.67
2022-09-03T02:55:24.501Z,77.47
2022-09-03T02:56:24.945Z,77.57
2022-09-03T02:57:27.680Z,77.78
2022-09-03T02:58:25.604Z,77.91
2022-09-03T02:59:26.069Z,77.91
2022-09-03T03:00:26.339Z,78.02
2022-09-03T03:01:26.740Z,78.22
2022-09-03T03:02:27.114Z,78.22
2022-09-03T03:03:27.414Z,78.32
2022-09-03T03:04:27.861Z,78.53
2022-09-03T03:05:28.124Z,78.53
2022-09-03T03:06:28.497Z,78.63
2022-09-03T03:07:28.868Z,78.63
2022-09-03T03:08:29.218Z,78.73
2022-09-03T03:09:29.586Z,78.63
2022-09-03T03:10:29.951Z,78.63
2022-09-03T03:11:30.326Z,78.63
2022-09-03T03:12:30.700Z,78.42
2022-09-03T03:13:31.042Z,78.63
2022-09-03T03:14:31.442Z,78.83
2022-09-03T03:15:31.798Z,79.07
2022-09-03T03:16:32.173Z,79.27
2022-09-03T03:17:32.486Z,79.17
2022-09-03T03:18:32.867Z,79.48
2022-09-03T03:19:33.219Z,79.58
2022-09-03T03:20:33.604Z,79.89
2022-09-03T03:21:33.916Z,79.93
2022-09-03T03:22:34.282Z,80.13
2022-09-03T03:23:34.642Z,80.23
2022-09-03T03:24:35.022Z,80.23
2022-09-03T03:25:35.377Z,80.23
2022-09-03T03:26:35.728Z,80.33
2022-09-03T03:27:36.090Z,80.84
2022-09-03T03:28:36.441Z,80.84
2022-09-03T03:29:36.801Z,80.74
2022-09-03T03:30:37.201Z,80.64
2022-09-03T03:31:37.554Z,80.64
2022-09-03T03:32:37.870Z,80.64
2022-09-03T03:33:38.266Z,80.74
2022-09-03T03:34:38.637Z,80.94
2022-09-03T03:35:38.940Z,80.94
2022-09-03T03:36:39.314Z,80.88
2022-09-03T03:37:39.675Z,81.18
2022-09-03T03:38:40.004Z,81.18
2022-09-03T03:39:40.487Z,81.59
2022-09-03T03:40:40.771Z,81.49
2022-09-03T03:41:41.120Z,81.59
2022-09-03T03:42:41.473Z,81.18
2022-09-03T03:43:41.847Z,81.09
2022-09-03T03:44:42.209Z,80.84
2022-09-03T03:45:42.595Z,80.64
2022-09-03T03:46:42.932Z,80.74
2022-09-03T03:47:43.311Z,80.74
2022-09-03T03:48:43.653Z,80.98
2022-09-03T03:49:44.071Z,81.09
2022-09-03T03:50:44.360Z,81.39
2022-09-03T03:51:44.742Z,81.18
2022-09-03T03:52:45.114Z,81.29
2022-09-03T03:53:45.509Z,81.29
2022-09-03T03:54:45.875Z,81.29
2022-09-03T03:55:46.223Z,81.59
2022-09-03T03:56:46.847Z,81.29
2022-09-03T03:57:46.626Z,81.94
2022-09-03T03:58:46.793Z,82.24
2022-09-03T03:59:46.998Z,82.55
2022-09-03T04:00:47.120Z,82.75
2022-09-03T04:01:47.583Z,82.55
2022-09-03T04:02:47.742Z,82.45
2022-09-03T04:03:47.994Z,82.45
2022-09-03T04:04:48.137Z,82.45
2022-09-03T04:05:48.641Z,82.35
2022-09-03T04:06:48.462Z,82.45
2022-09-03T04:07:48.646Z,82.75
2022-09-03T04:08:49.711Z,83.06
2022-09-03T04:09:49.065Z,83.06
2022-09-03T04:10:49.151Z,82.89
2022-09-03T04:11:49.331Z,83.30
2022-09-03T04:12:49.502Z,83.40
2022-09-03T04:13:49.805Z,83.40
2022-09-03T04:14:49.978Z,83.61
2022-09-03T04:15:50.251Z,83.30
2022-09-03T04:16:50.528Z,83.40
2022-09-03T04:17:50.617Z,83.40
2022-09-03T04:18:50.895Z,83.20
2022-09-03T04:19:51.098Z,83.40
2022-09-03T04:20:51.283Z,83.40
2022-09-03T04:21:51.441Z,83.51
2022-09-03T04:22:52.135Z,83.61
2022-09-03T04:23:51.790Z,83.95
2022-09-03T04:24:52.088Z,84.16
2022-09-03T04:25:52.364Z,84.57
2022-09-03T04:26:52.569Z,84.57
2022-09-03T04:27:52.824Z,84.57
2022-09-03T04:28:52.989Z,84.26
2022-09-03T04:29:53.330Z,84.36
2022-09-03T04:30:53.532Z,84.47
2022-09-03T04:31:53.786Z,84.47
2022-09-03T04:32:53.951Z,84.36
2022-09-03T04:33:54.145Z,84.01
2022-09-03T04:34:54.336Z,83.95
2022-09-03T04:35:54.496Z,84.16
2022-09-03T04:36:54.708Z,83.61
2022-09-03T04:37:54.845Z,83.61
2022-09-03T04:38:55.020Z,83.51
2022-09-03T04:39:55.334Z,83.20
2022-09-03T04:40:55.346Z,83.40
2022-09-03T04:41:55.536Z,83.61
2022-09-03T04:42:55.710Z,83.92
2022-09-03T04:43:55.869Z,84.01
2022-09-03T04:44:56.084Z,84.12
2022-09-03T04:45:56.300Z,83.81
2022-09-03T04:46:56.370Z,84.26
2022-09-03T04:47:56.571Z,84.01
2022-09-03T04:48:56.719Z,83.81
2022-09-03T04:49:56.914Z,83.51
2022-09-03T04:50:57.072Z,83.30
2022-09-03T04:51:57.224Z,83.10
2022-09-03T04:52:57.406Z,83.30
2022-09-03T04:53:57.587Z,83.20
2022-09-03T04:54:57.798Z,82.86
2022-09-03T04:55:57.921Z,82.96
2022-09-03T04:56:58.092Z,82.96
2022-09-03T04:57:58.263Z,82.86
2022-09-03T04:58:58.473Z,82.86
2022-09-03T04:59:58.636Z,83.00
2022-09-03T05:00:58.812Z,82.86
2022-09-03T05:01:58.987Z,82.86
2022-09-03T05:02:59.111Z,81.70
2022-09-03T05:03:59.281Z,80.94
2022-09-03T05:04:59.453Z,80.43
2022-09-03T05:05:59.750Z,80.23
2022-09-03T05:06:59.916Z,79.79
2022-09-03T05:08:00.097Z,79.48
2022-09-03T05:09:00.254Z,79.38
2022-09-03T05:10:00.442Z,79.27
2022-09-03T05:11:00.581Z,78.83
2022-09-03T05:12:00.778Z,77.78
2022-09-03T05:13:00.925Z,76.18
2022-09-03T05:14:01.165Z,75.02
2022-09-03T05:15:01.314Z,73.97
2022-09-03T05:16:01.558Z,73.09
2022-09-03T05:17:01.668Z,72.08
2022-09-03T05:18:01.855Z,71.44
2022-09-03T05:19:02.062Z,71.00
2022-09-03T05:20:02.266Z,70.25
2022-09-03T05:21:02.410Z,70.18
2022-09-03T05:22:02.601Z,71.88
2022-09-03T05:23:02.957Z,72.28
2022-09-03T05:24:03.017Z,71.97
2022-09-03T05:25:03.265Z,71.53
2022-09-03T05:26:03.385Z,71.73
2022-09-03T05:27:03.550Z,70.56
2022-09-03T05:28:03.743Z,69.34
2022-09-03T05:29:03.943Z,69.10
2022-09-03T05:30:04.141Z,69.13
2022-09-03T05:31:04.315Z,69.64
2022-09-03T05:32:04.591Z,69.10
2022-09-03T05:33:04.718Z,68.70
2022-09-03T05:34:04.867Z,68.66
2022-09-03T05:35:05.069Z,67.82
2022-09-03T05:36:05.253Z,67.08
2022-09-03T05:37:05.445Z,67.96
2022-09-03T05:38:05.693Z,68.13
2022-09-03T05:39:05.827Z,67.18
2022-09-03T05:40:06.103Z,66.44
2022-09-03T05:41:06.218Z,65.81
2022-09-03T05:42:06.409Z,66.35
2022-09-03T05:43:08.484Z,66.07
2022-09-03T05:44:06.782Z,67.42
2022-09-03T05:45:06.983Z,67.08
2022-09-03T05:46:07.253Z,66.78
2022-09-03T05:47:07.375Z,66.58
2022-09-03T05:48:07.551Z,68.26
2022-09-03T05:49:07.737Z,68.36
2022-09-03T05:50:07.966Z,67.96
2022-09-03T05:51:08.118Z,68.56
2022-09-03T05:52:08.322Z,69.00
2022-09-03T05:53:08.518Z,69.84
2022-09-03T05:54:08.947Z,70.59
2022-09-03T05:55:13.187Z,72.17
2022-09-03T05:56:09.108Z,72.52
2022-09-03T05:57:09.286Z,73.36
2022-09-03T05:58:09.483Z,74.31
2022-09-03T05:59:09.644Z,74.92
2022-09-03T06:00:09.867Z,75.02
2022-09-03T06:01:10.013Z,75.53
2022-09-03T06:02:10.363Z,75.63
2022-09-03T06:03:10.559Z,75.53
2022-09-03T06:04:10.574Z,75.43
2022-09-03T06:05:10.766Z,75.23
2022-09-03T06:06:10.976Z,75.23
2022-09-03T06:07:11.197Z,75.33
2022-09-03T06:08:12.660Z,75.12
2022-09-03T06:09:11.499Z,75.33
2022-09-03T06:10:11.748Z,75.23
2022-09-03T06:11:11.891Z,74.82
2022-09-03T06:12:12.138Z,74.11
2022-09-03T06:13:12.264Z,74.28
2022-09-03T06:14:12.458Z,74.38
2022-09-03T06:15:12.679Z,74.07
2022-09-03T06:16:12.880Z,74.28
2022-09-03T06:17:13.017Z,73.94
2022-09-03T06:18:13.194Z,74.04
2022-09-03T06:19:13.384Z,73.63
2022-09-03T06:20:13.602Z,73.33
2022-09-03T06:21:13.771Z,73.22
2022-09-03T06:22:13.948Z,72.92
2022-09-03T06:23:14.134Z,73.22
2022-09-03T06:24:14.812Z,72.92
2022-09-03T06:25:14.520Z,72.89
2022-09-03T06:26:14.728Z,72.38
2022-09-03T06:27:14.936Z,72.69
2022-09-03T06:28:15.214Z,72.58
2022-09-03T06:29:15.270Z,72.04
2022-09-03T06:30:15.473Z,72.04
2022-09-03T06:31:15.706Z,71.94
2022-09-03T06:32:15.856Z,71.94
2022-09-03T06:33:16.111Z,71.64
2022-09-03T06:34:16.222Z,71.33
2022-09-03T06:35:16.434Z,71.44
2022-09-03T06:36:16.614Z,71.23
2022-09-03T06:37:16.814Z,70.72
2022-09-03T06:38:16.995Z,71.09
2022-09-03T06:39:17.281Z,71.00
2022-09-03T06:40:17.444Z,70.59
2022-09-03T06:41:17.560Z,71.00
2022-09-03T06:42:17.751Z,70.45
2022-09-03T06:43:17.953Z,70.35
2022-09-03T06:44:18.113Z,70.05
2022-09-03T06:45:18.345Z,69.95
2022-09-03T06:46:18.511Z,69.95
2022-09-03T06:47:18.680Z,69.54
2022-09-03T06:48:18.871Z,69.64
2022-09-03T06:49:19.072Z,69.51
2022-09-03T06:50:19.268Z,69.51
2022-09-03T06:51:19.468Z,69.51
2022-09-03T06:52:19.670Z,69.00
2022-09-03T06:53:19.858Z,68.90
2022-09-03T06:54:20.038Z,68.90
2022-09-03T06:55:20.274Z,69.17
2022-09-03T06:56:20.429Z,69.07
2022-09-03T06:57:20.625Z,69.17
2022-09-03T06:58:20.838Z,68.36
2022-09-03T06:59:20.994Z,68.13
2022-09-03T07:00:21.208Z,68.23
2022-09-03T07:01:21.476Z,67.82
2022-09-03T07:02:21.736Z,68.33
2022-09-03T07:03:21.823Z,67.72
2022-09-03T07:04:21.972Z,67.82
2022-09-03T07:05:22.178Z,67.42
2022-09-03T07:06:22.354Z,67.01
2022-09-03T07:07:22.496Z,66.81
2022-09-03T07:08:22.786Z,67.01
2022-09-03T07:09:22.888Z,67.01
2022-09-03T07:10:23.145Z,66.78
2022-09-03T07:11:23.287Z,66.98
2022-09-03T07:12:23.480Z,67.29
2022-09-03T07:13:23.659Z,66.95
2022-09-03T07:14:23.847Z,66.55
2022-09-03T07:15:24.074Z,66.55
2022-09-03T07:16:24.294Z,66.55
2022-09-03T07:17:24.390Z,66.24
2022-09-03T07:18:24.719Z,66.24
2022-09-03T07:19:24.774Z,65.84
2022-09-03T07:20:24.993Z,66.24
2022-09-03T07:21:25.167Z,66.11
2022-09-03T07:22:31.286Z,66.21
2022-09-03T07:23:25.545Z,65.91
2022-09-03T07:24:25.754Z,65.47
2022-09-03T07:25:25.940Z,65.10
2022-09-03T07:26:26.130Z,65.50
2022-09-03T07:27:26.324Z,65.27
2022-09-03T07:28:26.542Z,65.78
2022-09-03T07:29:26.696Z,65.27
2022-09-03T07:30:26.927Z,64.87
2022-09-03T07:31:27.167Z,64.87
2022-09-03T07:32:27.280Z,64.97
2022-09-03T07:33:30.640Z,64.87
2022-09-03T07:34:27.605Z,64.76
2022-09-03T07:35:33.810Z,64.87
2022-09-03T07:36:27.980Z,64.46
2022-09-03T07:37:28.173Z,64.36
2022-09-03T07:38:28.364Z,64.73
2022-09-03T07:39:28.577Z,64.73
2022-09-03T07:40:28.743Z,64.53
2022-09-03T07:41:29.219Z,64.13
2022-09-03T07:42:29.148Z,63.93
2022-09-03T07:43:29.297Z,63.49
2022-09-03T07:44:29.487Z,63.59
2022-09-03T07:45:29.663Z,64.00
2022-09-03T07:46:29.918Z,63.70
2022-09-03T07:47:30.024Z,63.70
2022-09-03T07:48:33.159Z,63.46
2022-09-03T07:49:30.408Z,63.59
2022-09-03T07:50:30.588Z,63.19
2022-09-03T07:51:30.817Z,63.59
2022-09-03T07:52:30.983Z,63.49
2022-09-03T07:53:31.259Z,63.56
2022-09-03T07:54:31.376Z,63.46
2022-09-03T07:55:31.570Z,63.26
2022-09-03T07:56:31.802Z,62.65
2022-09-03T07:57:31.971Z,63.13
2022-09-03T07:58:32.125Z,62.73
2022-09-03T07:59:32.316Z,63.03
2022-09-03T08:00:32.589Z,62.73
2022-09-03T08:01:32.709Z,62.29
2022-09-03T08:02:32.861Z,61.92
2022-09-03T08:03:33.102Z,62.19
2022-09-03T08:04:33.248Z,62.09
2022-09-03T08:05:33.451Z,62.29
2022-09-03T08:06:33.650Z,62.40
2022-09-03T08:07:33.821Z,62.40
2022-09-03T08:08:35.488Z,61.66
2022-09-03T08:09:34.202Z,60.98
2022-09-03T08:10:34.393Z,61.59
2022-09-03T08:11:34.629Z,61.39
2022-09-03T08:12:34.778Z,61.18
2022-09-03T08:13:34.975Z,61.49
2022-09-03T08:14:35.164Z,60.55
2022-09-03T08:15:35.369Z,60.78
2022-09-03T08:16:35.654Z,60.85
2022-09-03T08:17:35.741Z,61.05
2022-09-03T08:18:35.942Z,60.55
2022-09-03T08:19:36.127Z,60.45
2022-09-03T08:20:36.319Z,60.72
2022-09-03T08:21:36.553Z,60.22
2022-09-03T08:22:36.675Z,60.19
2022-09-03T08:23:36.860Z,60.29
2022-09-03T08:24:37.048Z,59.28
2022-09-03T08:25:37.248Z,59.28
2022-09-03T08:26:37.459Z,59.48
2022-09-03T08:27:37.606Z,59.69
2022-09-03T08:28:37.798Z,59.59
2022-09-03T08:29:37.988Z,59.48
2022-09-03T08:30:38.177Z,59.39
2022-09-03T08:31:38.440Z,58.98
2022-09-03T08:32:38.564Z,59.69
2022-09-03T08:33:38.762Z,59.39
2022-09-03T08:34:38.975Z,59.39
2022-09-03T08:35:39.140Z,59.52
2022-09-03T08:36:39.365Z,59.72
2022-09-03T08:37:39.519Z,59.62
2022-09-03T08:38:39.716Z,59.92
2022-09-03T08:39:39.949Z,59.79
2022-09-03T08:40:40.093Z,59.79
2022-09-03T08:41:40.342Z,59.48
2022-09-03T08:42:40.474Z,59.59
2022-09-03T08:43:40.669Z,59.59
2022-09-03T08:44:40.857Z,59.28
2022-09-03T08:45:41.054Z,59.28
2022-09-03T08:46:41.318Z,59.26
2022-09-03T08:47:41.459Z,58.93
2022-09-03T08:48:41.639Z,58.62
2022-09-03T08:49:41.823Z,58.65
2022-09-03T08:50:42.007Z,58.42
2022-09-03T08:51:42.213Z,58.35
2022-09-03T08:52:42.365Z,58.95
2022-09-03T08:53:42.557Z,58.62
2022-09-03T08:54:42.734Z,58.42
2022-09-03T08:55:42.923Z,58.42
2022-09-03T08:56:43.129Z,58.42
2022-09-03T08:57:43.318Z,58.53
2022-09-03T08:58:43.512Z,58.53
2022-09-03T08:59:43.720Z,58.40
2022-09-03T09:00:43.903Z,57.50
2022-09-03T09:01:44.201Z,57.67
2022-09-03T09:02:44.385Z,57.46
2022-09-03T09:03:44.452Z,57.04
2022-09-03T09:04:44.636Z,56.56
2022-09-03T09:05:44.871Z,56.49
2022-09-03T09:06:45.046Z,57.19
2022-09-03T09:07:45.235Z,56.76
2022-09-03T09:08:45.430Z,55.96
2022-09-03T09:09:45.630Z,56.56
2022-09-03T09:10:45.817Z,56.43
2022-09-03T09:11:46.014Z,56.30
2022-09-03T09:12:47.051Z,55.60
2022-09-03T09:13:46.405Z,55.58
2022-09-03T09:14:46.601Z,55.28
2022-09-03T09:15:46.825Z,54.47
2022-09-03T09:16:46.983Z,54.68
2022-09-03T09:17:47.200Z,55.05
2022-09-03T09:18:47.341Z,53.02
2022-09-03T09:19:47.532Z,52.44
2022-09-03T09:20:47.744Z,50.70
2022-09-03T09:21:47.937Z,50.22
2022-09-03T09:22:48.091Z,50.82
2022-09-03T09:23:48.286Z,51.14
2022-09-03T09:24:48.476Z,50.92
2022-09-03T09:25:48.697Z,50.82
2022-09-03T09:26:48.900Z,50.59
2022-09-03T09:27:49.086Z,50.09
2022-09-03T09:28:51.052Z,49.37
2022-09-03T09:29:49.485Z,49.35
2022-09-03T09:30:49.730Z,48.43
2022-09-03T09:31:49.902Z,48.38
2022-09-03T09:32:50.053Z,47.96
2022-09-03T09:33:50.240Z,48.25
2022-09-03T09:34:52.568Z,48.65
2022-09-03T09:35:50.591Z,47.71
2022-09-03T09:36:50.805Z,46.87
2022-09-03T09:37:50.964Z,45.85
2022-09-03T09:38:51.153Z,45.43
2022-09-03T09:39:51.413Z,45.18
2022-09-03T09:40:51.532Z,45.78
2022-09-03T09:41:51.794Z,45.75
2022-09-03T09:42:51.909Z,46.09
2022-09-03T09:43:52.091Z,46.01
2022-09-03T09:44:52.284Z,46.72
2022-09-03T09:45:52.477Z,46.72
2022-09-03T09:46:54.852Z,45.97
2022-09-03T09:47:52.907Z,45.62
2022-09-03T09:48:53.066Z,45.76
2022-09-03T09:49:53.258Z,45.62
2022-09-03T09:50:53.449Z,45.20
2022-09-03T09:51:53.675Z,45.28
2022-09-03T09:52:58.568Z,45.37
2022-09-03T09:53:54.071Z,44.74
2022-09-03T09:54:54.263Z,44.84
2022-09-03T09:55:54.453Z,44.98
2022-09-03T09:56:54.665Z,45.60
2022-09-03T09:57:54.866Z,45.94
2022-09-03T09:58:55.055Z,45.76
2022-09-03T09:59:55.269Z,45.74
2022-09-03T10:00:55.445Z,44.67
2022-09-03T10:01:55.677Z,45.10
2022-09-03T10:02:55.899Z,45.02
2022-09-03T10:03:56.035Z,45.72
2022-09-03T10:04:56.227Z,45.84
2022-09-03T10:05:56.418Z,45.60
2022-09-03T10:06:56.617Z,45.40
2022-09-03T10:07:56.813Z,45.74
2022-09-03T10:08:57.047Z,45.78
2022-09-03T10:09:57.236Z,46.98
2022-09-03T10:10:57.422Z,46.68
2022-09-03T10:11:57.632Z,45.89
2022-09-03T10:12:57.863Z,45.56
2022-09-03T10:13:58.022Z,45.26
2022-09-03T10:14:58.215Z,44.82
2022-09-03T10:15:58.446Z,44.53
2022-09-03T10:16:58.615Z,44.48
2022-09-03T10:17:58.818Z,43.66
2022-09-03T10:18:59.020Z,44.10
2022-09-03T10:19:59.200Z,44.12
2022-09-03T10:20:59.431Z,44.62
2022-09-03T10:21:59.688Z,44.42
2022-09-03T10:22:59.865Z,44.98
2022-09-03T10:24:03.636Z,43.41
2022-09-03T10:25:00.269Z,46.42
2022-09-03T10:26:00.417Z,45.12
2022-09-03T10:27:00.634Z,45.24
2022-09-03T10:28:00.792Z,45.59
2022-09-03T10:29:01.001Z,46.38
2022-09-03T10:30:01.195Z,45.72
2022-09-03T10:31:01.443Z,44.82
2022-09-03T10:32:01.627Z,44.72
2022-09-03T10:33:01.801Z,45.54
2022-09-03T10:34:02.001Z,44.82
2022-09-03T10:35:02.199Z,44.70
2022-09-03T10:36:02.396Z,43.98
2022-09-03T10:37:02.613Z,44.38
2022-09-03T10:38:02.786Z,44.16
2022-09-03T10:39:02.985Z,44.88
2022-09-03T10:40:03.303Z,44.80
2022-09-03T10:41:03.363Z,45.15
2022-09-03T10:42:03.607Z,45.08
2022-09-03T10:43:03.756Z,44.70
2022-09-03T10:44:03.946Z,45.74
2022-09-03T10:45:04.130Z,45.76
2022-09-03T10:46:04.327Z,45.96
2022-09-03T10:47:04.535Z,45.89
2022-09-03T10:48:04.716Z,47.26
2022-09-03T10:49:04.944Z,47.53
2022-09-03T10:50:05.122Z,46.26
2022-09-03T10:51:05.296Z,47.77
2022-09-03T10:52:05.499Z,48.49
2022-09-03T10:53:05.688Z,49.29
2022-09-03T10:54:05.881Z,49.69
2022-09-03T10:55:06.095Z,49.41
2022-09-03T10:56:06.289Z,49.57
2022-09-03T10:57:06.473Z,46.70
2022-09-03T10:58:06.707Z,46.91
2022-09-03T10:59:06.856Z,46.14
2022-09-03T11:00:07.037Z,44.90
2022-09-03T11:01:07.286Z,45.52
2022-09-03T11:02:07.451Z,44.78
2022-09-03T11:03:07.689Z,43.07
2022-09-03T11:04:07.857Z,42.80
2022-09-03T11:05:08.056Z,42.29
2022-09-03T11:06:08.251Z,42.88
2022-09-03T11:07:08.498Z,42.39
2022-09-03T11:08:08.678Z,42.99
2022-09-03T11:09:08.873Z,41.66
2022-09-03T11:10:09.076Z,40.19
2022-09-03T11:11:09.265Z,40.36
2022-09-03T11:12:09.477Z,40.30
2022-09-03T11:13:09.670Z,41.22
2022-09-03T11:14:09.880Z,40.90
2022-09-03T11:15:10.105Z,39.29
2022-09-03T11:16:10.329Z,39.29
2022-09-03T11:17:10.527Z,40.56
2022-09-03T11:18:10.728Z,41.69
2022-09-03T11:19:10.913Z,40.86
2022-09-03T11:20:11.097Z,41.04
2022-09-03T11:21:12.315Z,42.29
2022-09-03T11:22:11.513Z,43.08
2022-09-03T11:23:11.692Z,43.05
2022-09-03T11:24:11.879Z,41.31
2022-09-03T11:25:12.074Z,40.70
2022-09-03T11:26:12.242Z,41.55
2022-09-03T11:27:12.450Z,42.69
2022-09-03T11:28:12.619Z,42.43
2022-09-03T11:29:12.825Z,42.19
2022-09-03T11:30:13.068Z,41.63
2022-09-03T11:31:13.287Z,40.48
2022-09-03T11:32:13.414Z,39.59
2022-09-03T11:33:13.611Z,41.12
2022-09-03T11:34:13.805Z,40.28
2022-09-03T11:35:14.021Z,38.68
2022-09-03T11:36:14.198Z,39.09
2022-09-03T11:37:14.397Z,40.76
2022-09-03T11:38:14.594Z,41.75
2022-09-03T11:39:14.807Z,41.16
2022-09-03T11:40:14.997Z,41.02
2022-09-03T11:41:15.189Z,40.11
2022-09-03T11:42:15.423Z,40.44
2022-09-03T11:43:15.577Z,40.82
2022-09-03T11:44:15.763Z,40.26
2022-09-03T11:45:15.960Z,38.46
2022-09-03T11:46:16.195Z,39.25
2022-09-03T11:47:16.376Z,39.89
2022-09-03T11:48:16.565Z,39.07
2022-09-03T11:49:16.775Z,40.36
2022-09-03T11:50:16.957Z,41.12
2022-09-03T11:51:17.140Z,39.63
2022-09-03T11:52:17.350Z,40.52
2022-09-03T11:53:17.541Z,39.29
2022-09-03T11:54:17.730Z,38.71
2022-09-03T11:55:17.938Z,39.23
2022-09-03T11:56:18.128Z,39.67
2022-09-03T11:57:18.371Z,40.28
2022-09-03T11:58:18.505Z,40.80
2022-09-03T11:59:18.704Z,40.28
2022-09-03T12:00:18.901Z,39.25
2022-09-03T12:01:19.111Z,39.86
2022-09-03T12:02:19.343Z,39.51
2022-09-03T12:03:19.567Z,38.28
2022-09-03T12:04:19.778Z,39.15
2022-09-03T12:05:19.931Z,38.13
2022-09-03T12:06:20.136Z,37.35
2022-09-03T12:07:20.855Z,36.83
2022-09-03T12:08:20.523Z,37.92
2022-09-03T12:09:20.713Z,37.64
2022-09-03T12:10:20.913Z,37.51
2022-09-03T12:11:21.118Z,37.41
2022-09-03T12:12:21.350Z,37.41
2022-09-03T12:13:21.547Z,37.09
2022-09-03T12:14:21.755Z,37.90
2022-09-03T12:15:21.941Z,37.94
2022-09-03T12:16:22.234Z,37.09
2022-09-03T12:17:22.359Z,37.54
2022-09-03T12:18:22.531Z,37.58
2022-09-03T12:19:22.714Z,39.29
2022-09-03T12:20:22.921Z,39.43
2022-09-03T12:21:23.137Z,37.39
2022-09-03T12:22:23.351Z,36.84
2022-09-03T12:23:23.603Z,36.35
2022-09-03T12:24:23.737Z,35.93
2022-09-03T12:25:23.947Z,36.46
2022-09-03T12:26:24.151Z,36.62
2022-09-03T12:27:24.376Z,35.55
2022-09-03T12:28:24.573Z,36.38
2022-09-03T12:29:27.794Z,36.48
2022-09-03T12:30:24.989Z,36.13
2022-09-03T12:31:25.183Z,34.92
2022-09-03T12:32:25.402Z,34.43
2022-09-03T12:33:25.862Z,35.46
2022-09-03T12:34:25.807Z,34.64
2022-09-03T12:36:26.213Z,34.46
2022-09-03T12:38:26.595Z,33.72
2022-09-03T12:40:27.087Z,34.74
2022-09-03T12:41:27.916Z,35.22
2022-09-03T12:42:27.456Z,33.95
2022-09-03T12:43:47.609Z,34.64
2022-09-03T12:44:27.810Z,35.37
2022-09-03T12:46:09.950Z,34.73
2022-09-03T12:46:33.262Z,34.64
2022-09-03T12:47:37.219Z,34.84
2022-09-03T12:48:28.628Z,34.71
2022-09-03T12:49:30.598Z,34.73
2022-09-03T12:50:28.992Z,34.12
2022-09-03T12:52:29.488Z,32.98
2022-09-03T12:53:29.665Z,33.72
2022-09-03T12:54:29.847Z,34.53
2022-09-03T12:55:30.033Z,34.66
2022-09-03T12:56:30.235Z,35.06
2022-09-03T12:57:30.429Z,34.73
2022-09-03T12:58:30.616Z,34.83
2022-09-03T12:59:30.861Z,34.91